Time;durP1;ratioP1;P1;durP2;ratioP2;P2;SDS_P1;SDS_P2;PMS_P1;PMS_P2;Temp;Humidity;BMP_temperature;BMP_pressure;BME280_temperature;BME280_humidity;BME280_pressure;Samples;Min_cycle;Max_cycle;Signal;HPM_P1;HPM_P2
2021/07/29 00:00:49;;;;;;;;;5.00;2.00;;;;;-143.39;100.00;63593.47;4900761;29;46227;-83
2021/07/29 00:03:17;;;;;;;;;3.00;2.00;;;;;-143.39;100.00;63593.47;4886315;29;45395;-83
2021/07/29 00:05:42;;;;;;;;;3.00;2.25;;;;;-143.39;100.00;63593.47;4886595;29;45293;-83
2021/07/29 00:08:08;;;;;;;;;3.00;3.00;;;;;-143.39;100.00;63593.47;4886108;29;46271;-83
2021/07/29 00:10:33;;;;;;;;;5.00;3.50;;;;;-143.39;100.00;63593.47;4896131;29;45214;-83
2021/07/29 00:13:00;;;;;;;;;4.50;3.00;;;;;-143.39;100.00;63593.47;4888079;29;45435;-82
2021/07/29 00:15:25;;;;;;;;;3.50;2.00;;;;;-143.39;100.00;63593.47;4887970;29;45246;-83
2021/07/29 00:20:24;;;;;;;;;6.25;2.75;;;;;-143.39;100.00;63593.47;4904777;29;45578;-83
2021/07/29 00:22:52;;;;;;;;;2.75;2.75;;;;;-143.39;100.00;63593.47;4904931;29;45245;-83
2021/07/29 00:25:19;;;;;;;;;4.75;2.00;;;;;-143.39;100.00;63593.47;4904843;29;45362;-83
2021/07/29 00:27:45;;;;;;;;;4.50;3.25;;;;;-143.39;100.00;63593.47;4904545;29;45423;-82
2021/07/29 00:30:12;;;;;;;;;3.00;2.00;;;;;-143.39;100.00;63593.47;4904634;29;45336;-83
2021/07/29 00:32:38;;;;;;;;;2.00;2.00;;;;;-143.39;100.00;63593.47;4904581;29;45356;-83
2021/07/29 00:35:06;;;;;;;;;4.25;2.75;;;;;-143.39;100.00;63593.47;4904726;29;45254;-82
2021/07/29 00:37:36;;;;;;;;;3.75;2.50;;;;;-143.39;100.00;63593.47;4904925;29;46277;-82
2021/07/29 00:40:03;;;;;;;;;5.25;3.50;;;;;-143.39;100.00;63593.47;4904794;29;45571;-82
2021/07/29 00:42:28;;;;;;;;;3.00;3.00;;;;;-143.39;100.00;63593.47;4904824;29;45152;-82
2021/07/29 00:44:53;;;;;;;;;5.25;4.00;;;;;-143.39;100.00;63593.47;4904338;29;45144;-81
2021/07/29 00:47:20;;;;;;;;;4.25;2.75;;;;;-143.39;100.00;63593.47;4887366;29;45862;-81
2021/07/29 00:49:47;;;;;;;;;3.00;2.00;;;;;-143.39;100.00;63593.47;4887660;29;46357;-82
2021/07/29 00:52:19;;;;;;;;;5.50;3.00;;;;;-143.39;100.00;63593.47;4887618;29;45347;-81
2021/07/29 00:54:46;;;;;;;;;2.00;2.00;;;;;-143.39;100.00;63593.47;4904385;29;45236;-81
2021/07/29 00:57:12;;;;;;;;;3.75;2.75;;;;;-143.39;100.00;63593.47;4896806;29;45532;-82
2021/07/29 00:59:39;;;;;;;;;4.50;3.00;;;;;-143.39;100.00;63593.47;4885305;29;45741;-81
2021/07/29 01:02:05;;;;;;;;;6.00;2.75;;;;;-143.39;100.00;63593.47;4900108;29;45518;-82
2021/07/29 01:04:30;;;;;;;;;5.00;2.25;;;;;-143.39;100.00;63593.47;4885205;29;45596;-81
2021/07/29 01:06:56;;;;;;;;;3.00;2.00;;;;;-143.39;100.00;63593.47;4885309;29;45555;-82
2021/07/29 01:09:21;;;;;;;;;3.50;3.00;;;;;-143.39;100.00;63593.47;4886913;29;46487;-82
2021/07/29 01:11:47;;;;;;;;;2.50;2.25;;;;;-143.39;100.00;63593.47;4904369;29;45305;-82
2021/07/29 01:14:14;;;;;;;;;7.75;3.25;;;;;-143.39;100.00;63593.47;4873926;29;45467;-82
2021/07/29 01:16:40;;;;;;;;;3.00;2.00;;;;;-143.39;100.00;63593.47;4885091;29;45269;-82
2021/07/29 01:19:07;;;;;;;;;4.25;3.25;;;;;-143.39;100.00;63593.47;4884963;29;45230;-82
2021/07/29 01:21:33;;;;;;;;;2.00;2.00;;;;;-143.39;100.00;63593.47;4884837;29;45304;-82
2021/07/29 01:23:59;;;;;;;;;2.00;2.00;;;;;-143.39;100.00;63593.47;4885123;29;45411;-82
2021/07/29 01:26:27;;;;;;;;;2.00;2.00;;;;;-143.39;100.00;63593.47;4885141;29;45436;-82
2021/07/29 01:28:53;;;;;;;;;6.50;3.50;;;;;-143.39;100.00;63593.47;4884903;29;45437;-82
2021/07/29 01:31:19;;;;;;;;;5.00;3.00;;;;;-143.39;100.00;63593.47;4885131;29;45301;-82
2021/07/29 01:33:44;;;;;;;;;2.75;2.00;;;;;-143.39;100.00;63593.47;4884766;29;45580;-82
2021/07/29 01:36:10;;;;;;;;;4.00;2.00;;;;;-143.39;100.00;63593.47;4867991;29;47335;-82
2021/07/29 01:38:35;;;;;;;;;4.00;2.25;;;;;-143.39;100.00;63593.47;4883856;29;46070;-82
2021/07/29 01:41:02;;;;;;;;;6.25;3.00;;;;;-143.39;100.00;63593.47;4885425;29;45216;-82
2021/07/29 01:43:28;;;;;;;;;4.75;2.50;;;;;-143.39;100.00;63593.47;4899752;29;45854;-82
2021/07/29 01:45:54;;;;;;;;;3.50;3.25;;;;;-143.39;100.00;63593.47;4874350;29;47305;-82
2021/07/29 01:48:19;;;;;;;;;2.25;2.25;;;;;-143.39;100.00;63593.47;4903850;29;45438;-82
2021/07/29 01:50:45;;;;;;;;;1.75;1.75;;;;;-143.39;100.00;63593.47;4904004;29;45425;-82
2021/07/29 01:53:11;;;;;;;;;3.25;3.25;;;;;-143.39;100.00;63593.47;4873808;29;45549;-82
2021/07/29 01:55:41;;;;;;;;;3.00;3.00;;;;;-143.39;100.00;63593.47;4887323;29;46600;-82
2021/07/29 01:58:06;;;;;;;;;4.75;3.50;;;;;-143.39;100.00;63593.47;4890052;29;45639;-82
2021/07/29 02:00:32;;;;;;;;;3.50;1.75;;;;;-143.39;100.00;63593.47;4867632;29;45320;-82
2021/07/29 02:02:59;;;;;;;;;3.00;2.75;;;;;-143.39;100.00;63593.47;4884345;29;45465;-82
2021/07/29 02:05:25;;;;;;;;;6.25;5.00;;;;;-143.39;100.00;63593.47;4884525;29;45446;-82
2021/07/29 02:07:50;;;;;;;;;4.00;2.75;;;;;-143.39;100.00;63593.47;4880182;29;45350;-82
2021/07/29 02:10:15;;;;;;;;;4.00;3.00;;;;;-143.39;100.00;63593.47;4893374;29;45453;-81
2021/07/29 02:12:41;;;;;;;;;2.25;2.25;;;;;-143.39;100.00;63593.47;4901018;29;45448;-81
2021/07/29 02:15:07;;;;;;;;;6.25;2.50;;;;;-143.39;100.00;63593.47;4867367;29;48256;-82
2021/07/29 02:17:33;;;;;;;;;4.50;3.50;;;;;-143.39;100.00;63593.47;4885176;29;45233;-81
2021/07/29 02:19:59;;;;;;;;;3.25;3.25;;;;;-143.39;100.00;63593.47;4879237;29;45264;-81
2021/07/29 02:22:24;;;;;;;;;4.25;3.50;;;;;-143.39;100.00;63593.47;4884518;29;45407;-82
2021/07/29 02:24:49;;;;;;;;;4.50;3.50;;;;;-143.39;100.00;63593.47;4884757;29;45336;-81
2021/07/29 02:27:15;;;;;;;;;2.75;2.75;;;;;-143.39;100.00;63593.47;4885076;29;45172;-81
2021/07/29 02:29:40;;;;;;;;;3.75;3.00;;;;;-143.39;100.00;63593.47;4870003;29;45240;-81
2021/07/29 02:32:06;;;;;;;;;3.50;2.75;;;;;-143.39;100.00;63593.47;4886876;29;45537;-81
2021/07/29 02:34:31;;;;;;;;;2.75;1.00;;;;;-143.39;100.00;63593.47;4873057;29;47596;-81
2021/07/29 02:36:57;;;;;;;;;4.75;2.50;;;;;-143.39;100.00;63593.47;4892374;29;45486;-81
2021/07/29 02:39:22;;;;;;;;;3.50;2.50;;;;;-143.39;100.00;63593.47;4875758;29;45447;-81
2021/07/29 02:41:47;;;;;;;;;2.50;2.50;;;;;-143.39;100.00;63593.47;4892106;29;46571;-82
2021/07/29 02:44:15;;;;;;;;;2.25;2.25;;;;;-143.39;100.00;63593.47;4891563;29;45320;-82
2021/07/29 02:46:40;;;;;;;;;4.25;3.50;;;;;-143.39;100.00;63593.47;4889313;29;45405;-81
2021/07/29 02:49:05;;;;;;;;;3.25;2.50;;;;;-143.39;100.00;63593.47;4888791;29;45418;-81
2021/07/29 02:51:31;;;;;;;;;4.00;4.00;;;;;-143.39;100.00;63593.47;4871326;29;45805;-81
2021/07/29 02:53:56;;;;;;;;;3.00;2.00;;;;;-143.39;100.00;63593.47;4887979;29;45445;-81
2021/07/29 02:56:21;;;;;;;;;3.50;3.00;;;;;-143.39;100.00;63593.47;4878693;29;45805;-82
2021/07/29 02:58:47;;;;;;;;;4.50;2.75;;;;;-143.39;100.00;63593.47;4887931;29;45354;-82
2021/07/29 03:01:14;;;;;;;;;3.50;2.50;;;;;-143.39;100.00;63593.47;4887277;29;45436;-82
2021/07/29 03:03:41;;;;;;;;;3.25;2.50;;;;;-143.39;100.00;63593.47;4870544;29;48082;-81
2021/07/29 03:06:07;;;;;;;;;3.50;2.50;;;;;-143.39;100.00;63593.47;4887205;29;45713;-82
2021/07/29 03:08:32;;;;;;;;;2.50;2.50;;;;;-143.39;100.00;63593.47;4870699;29;45392;-81
2021/07/29 03:10:58;;;;;;;;;3.50;2.75;;;;;-143.39;100.00;63593.47;4901259;29;45494;-81
2021/07/29 03:13:25;;;;;;;;;4.75;2.50;;;;;-143.39;100.00;63593.47;4899304;29;46182;-81
2021/07/29 03:15:50;;;;;;;;;6.50;3.25;;;;;-143.39;100.00;63593.47;4901987;29;45424;-81
2021/07/29 03:18:15;;;;;;;;;2.75;2.75;;;;;-143.39;100.00;63593.47;4899725;29;45436;-81
2021/07/29 03:20:41;;;;;;;;;5.00;5.00;;;;;-143.39;100.00;63593.47;4886935;29;45601;-81
2021/07/29 03:23:07;;;;;;;;;5.00;3.00;;;;;-143.39;100.00;63593.47;4887076;29;45361;-81
2021/07/29 03:25:34;;;;;;;;;4.25;4.00;;;;;-143.39;100.00;63593.47;4870288;29;45254;-81
2021/07/29 03:27:59;;;;;;;;;5.00;4.25;;;;;-143.39;100.00;63593.47;4888574;29;45157;-81
2021/07/29 03:30:25;;;;;;;;;7.25;4.00;;;;;-143.39;100.00;63593.47;4888416;29;45304;-82
2021/07/29 03:32:50;;;;;;;;;7.50;3.25;;;;;-143.39;100.00;63593.47;4889440;29;45251;-82
2021/07/29 03:35:15;;;;;;;;;6.75;4.00;;;;;-143.39;100.00;63593.47;4889798;29;45226;-81
2021/07/29 03:37:41;;;;;;;;;5.00;4.00;;;;;-143.39;100.00;63593.47;4905777;29;45283;-82
2021/07/29 03:40:07;;;;;;;;;2.00;2.00;;;;;-143.39;100.00;63593.47;4891239;29;45292;-81
2021/07/29 03:42:33;;;;;;;;;4.50;4.50;;;;;-143.39;100.00;63593.47;4888339;29;45485;-81
2021/07/29 03:45:00;;;;;;;;;4.50;4.00;;;;;-143.39;100.00;63593.47;4870529;29;46040;-82
2021/07/29 03:47:26;;;;;;;;;3.75;3.00;;;;;-143.39;100.00;63593.47;4902603;29;45368;-81
2021/07/29 03:49:52;;;;;;;;;7.75;4.00;;;;;-143.39;100.00;63593.47;4899672;29;45444;-82
2021/07/29 03:52:17;;;;;;;;;5.00;3.00;;;;;-143.39;100.00;63593.47;4886620;29;45236;-81
2021/07/29 03:54:43;;;;;;;;;3.50;3.00;;;;;-143.39;100.00;63593.47;4886977;29;45380;-82
2021/07/29 03:57:09;;;;;;;;;4.00;3.00;;;;;-143.39;100.00;63593.47;4894914;29;45222;-82
2021/07/29 03:59:37;;;;;;;;;6.00;3.25;;;;;-143.39;100.00;63593.47;4887242;29;45379;-82
2021/07/29 04:02:10;;;;;;;;;7.00;3.75;;;;;-143.39;100.00;63593.47;4885398;29;47432;-81
2021/07/29 04:04:39;;;;;;;;;3.00;2.00;;;;;-143.39;100.00;63593.47;4886507;29;45643;-81
2021/07/29 04:07:06;;;;;;;;;4.00;3.00;;;;;-143.39;100.00;63593.47;4886578;29;45431;-82
2021/07/29 04:09:32;;;;;;;;;3.00;3.00;;;;;-143.39;100.00;63593.47;4889409;29;45451;-82
2021/07/29 04:11:57;;;;;;;;;5.50;3.25;;;;;-143.39;100.00;63593.47;4905016;29;45723;-81
2021/07/29 04:14:22;;;;;;;;;3.00;3.00;;;;;-143.39;100.00;63593.47;4890571;29;45477;-82
2021/07/29 04:16:48;;;;;;;;;5.25;2.75;;;;;-143.39;100.00;63593.47;4886626;29;45496;-82
2021/07/29 04:19:13;;;;;;;;;5.00;3.25;;;;;-143.39;100.00;63593.47;4898909;29;45425;-81
2021/07/29 04:21:38;;;;;;;;;5.50;4.25;;;;;-143.39;100.00;63593.47;4885832;29;46299;-81
2021/07/29 04:24:04;;;;;;;;;4.00;2.75;;;;;-143.39;100.00;63593.47;4886018;29;45149;-81
2021/07/29 04:26:29;;;;;;;;;3.50;3.50;;;;;-143.39;100.00;63593.47;4886310;29;45418;-82
2021/07/29 04:28:54;;;;;;;;;7.75;4.00;;;;;-143.39;100.00;63593.47;4885685;29;45554;-82
2021/07/29 04:31:20;;;;;;;;;3.00;3.00;;;;;-143.39;100.00;63593.47;4885680;29;45419;-82
2021/07/29 04:33:45;;;;;;;;;6.00;4.25;;;;;-143.39;100.00;63593.47;4900325;29;45253;-82
2021/07/29 04:36:11;;;;;;;;;6.00;4.75;;;;;-143.39;100.00;63593.47;4870252;29;45206;-81
2021/07/29 04:38:36;;;;;;;;;3.75;2.75;;;;;-143.39;100.00;63593.47;4886830;29;45122;-81
2021/07/29 04:41:05;;;;;;;;;6.50;5.00;;;;;-143.39;100.00;63593.47;4886021;29;45658;-81
2021/07/29 04:43:31;;;;;;;;;3.50;3.00;;;;;-143.39;100.00;63593.47;4886046;29;45458;-82
2021/07/29 04:46:00;;;;;;;;;3.00;3.00;;;;;-143.39;100.00;63593.47;4886162;29;45435;-81
2021/07/29 04:48:25;;;;;;;;;4.50;3.50;;;;;-143.39;100.00;63593.47;4885742;29;45270;-81
2021/07/29 04:50:51;;;;;;;;;4.00;4.00;;;;;-143.39;100.00;63593.47;4885683;29;45237;-83
2021/07/29 04:53:16;;;;;;;;;5.00;3.25;;;;;-143.39;100.00;63593.47;4885495;29;45253;-83
2021/07/29 04:55:41;;;;;;;;;3.25;3.00;;;;;-143.39;100.00;63593.47;4871928;29;45276;-82
2021/07/29 04:58:08;;;;;;;;;6.00;5.00;;;;;-143.39;100.00;63593.47;4872883;29;45475;-82
2021/07/29 05:00:33;;;;;;;;;4.50;3.75;;;;;-143.39;100.00;63593.47;4885597;29;45462;-82
2021/07/29 05:02:59;;;;;;;;;3.00;3.00;;;;;-143.39;100.00;63593.47;4868212;29;45407;-82
2021/07/29 05:05:24;;;;;;;;;6.50;4.75;;;;;-143.39;100.00;63593.47;4885864;29;45433;-83
2021/07/29 05:07:51;;;;;;;;;6.50;5.50;;;;;-143.39;100.00;63593.47;4885198;29;45442;-82
2021/07/29 05:10:16;;;;;;;;;3.50;3.50;;;;;-143.39;100.00;63593.47;4894076;29;45920;-82
2021/07/29 05:12:41;;;;;;;;;6.00;4.00;;;;;-143.39;100.00;63593.47;4904147;29;45342;-82
2021/07/29 05:15:07;;;;;;;;;4.50;4.00;;;;;-143.39;100.00;63593.47;4887037;29;45348;-82
2021/07/29 05:17:33;;;;;;;;;4.75;4.25;;;;;-143.39;100.00;63593.47;4888933;29;45153;-83
2021/07/29 05:19:58;;;;;;;;;5.75;3.75;;;;;-143.39;100.00;63593.47;4889591;29;45410;-81
2021/07/29 05:22:23;;;;;;;;;7.25;4.00;;;;;-143.39;100.00;63593.47;4893137;28;44703;-82
2021/07/29 05:24:49;;;;;;;;;6.25;4.00;;;;;-143.39;100.00;63593.47;4899334;29;45296;-81
2021/07/29 05:27:14;;;;;;;;;5.00;5.00;;;;;-143.39;100.00;63593.47;4896935;29;45192;-82
2021/07/29 05:29:40;;;;;;;;;4.50;3.25;;;;;-143.39;100.00;63593.47;4895339;29;46961;-82
2021/07/29 05:32:06;;;;;;;;;6.00;4.25;;;;;-143.39;100.00;63593.47;4879000;29;45660;-82
2021/07/29 05:34:35;;;;;;;;;6.00;4.75;;;;;-143.39;100.00;63593.47;4894089;29;45585;-81
2021/07/29 05:37:00;;;;;;;;;7.00;4.50;;;;;-143.39;100.00;63593.47;4912258;29;45358;-83
2021/07/29 05:39:26;;;;;;;;;1.25;1.25;;;;;-143.39;100.00;63593.47;4907983;29;46184;-82
2021/07/29 05:41:52;;;;;;;;;4.75;4.00;;;;;-143.39;100.00;63593.47;4888480;29;45935;-81
2021/07/29 05:44:17;;;;;;;;;3.25;3.00;;;;;-143.39;100.00;63593.47;4889396;29;45272;-81
2021/07/29 05:46:42;;;;;;;;;4.50;3.75;;;;;-143.39;100.00;63593.47;4905628;29;45287;-81
2021/07/29 05:49:08;;;;;;;;;6.25;4.00;;;;;-143.39;100.00;63593.47;4886604;29;47063;-83
2021/07/29 05:51:33;;;;;;;;;3.50;3.50;;;;;-143.39;100.00;63593.47;4903545;29;45157;-82
2021/07/29 05:53:58;;;;;;;;;4.75;2.75;;;;;-143.39;100.00;63593.47;4903992;29;45314;-81
2021/07/29 05:56:24;;;;;;;;;7.75;3.00;;;;;-143.39;100.00;63593.47;4902253;29;45237;-82
2021/07/29 05:58:49;;;;;;;;;5.00;3.25;;;;;-143.39;100.00;63593.47;4884712;29;45471;-82
2021/07/29 06:01:14;;;;;;;;;6.75;3.25;;;;;-143.39;100.00;63593.47;4867357;29;45724;-81
2021/07/29 06:03:40;;;;;;;;;6.00;3.00;;;;;-143.39;100.00;63593.47;4884797;29;45284;-81
2021/07/29 06:06:05;;;;;;;;;6.75;4.25;;;;;-143.39;100.00;63593.47;4867790;29;45345;-83
2021/07/29 06:08:30;;;;;;;;;5.00;4.00;;;;;-143.39;100.00;63593.47;4885341;29;46041;-83
2021/07/29 06:10:56;;;;;;;;;9.00;4.50;;;;;-143.39;100.00;63593.47;4902170;29;45206;-82
2021/07/29 06:13:21;;;;;;;;;3.50;3.00;;;;;-143.39;100.00;63593.47;4900767;29;45161;-83
2021/07/29 06:15:46;;;;;;;;;5.00;5.00;;;;;-143.39;100.00;63593.47;4887686;29;45515;-82
2021/07/29 06:18:12;;;;;;;;;6.50;4.75;;;;;-143.39;100.00;63593.47;4887587;29;45416;-81
2021/07/29 06:20:38;;;;;;;;;5.00;4.50;;;;;-143.39;100.00;63593.47;4870627;29;45758;-81
2021/07/29 06:23:04;;;;;;;;;5.00;3.25;;;;;-143.39;100.00;63593.47;4889734;29;45431;-83
2021/07/29 06:25:30;;;;;;;;;4.50;4.00;;;;;-143.39;100.00;63593.47;4887680;29;45330;-81
2021/07/29 06:27:55;;;;;;;;;6.50;4.25;;;;;-143.39;100.00;63593.47;4902133;29;46922;-84
2021/07/29 06:30:20;;;;;;;;;3.75;3.00;;;;;-143.39;100.00;63593.47;4887964;29;45490;-82
2021/07/29 06:32:46;;;;;;;;;7.75;4.50;;;;;-143.39;100.00;63593.47;4888017;29;45335;-82
2021/07/29 06:35:12;;;;;;;;;4.25;3.50;;;;;-143.39;100.00;63593.47;4871032;29;45422;-83
2021/07/29 06:37:38;;;;;;;;;5.00;4.00;;;;;-143.39;100.00;63593.47;4887998;29;45276;-82
2021/07/29 06:40:04;;;;;;;;;4.75;4.75;;;;;-143.39;100.00;63593.47;4902401;29;45298;-83
2021/07/29 06:42:30;;;;;;;;;9.00;3.50;;;;;-143.39;100.00;63593.47;4894445;29;45225;-83
2021/07/29 06:44:56;;;;;;;;;3.50;2.75;;;;;-143.39;100.00;63593.47;4906480;29;45492;-83
2021/07/29 06:47:21;;;;;;;;;3.50;2.50;;;;;-143.39;100.00;63593.47;4889140;29;47175;-82
2021/07/29 06:49:47;;;;;;;;;3.50;3.50;;;;;-143.39;100.00;63593.47;4906460;29;45340;-83
2021/07/29 06:52:13;;;;;;;;;3.25;3.25;;;;;-143.39;100.00;63593.47;4889867;29;45313;-83
2021/07/29 06:54:39;;;;;;;;;6.00;2.75;;;;;-143.39;100.00;63593.47;4906371;29;45378;-83
2021/07/29 06:57:05;;;;;;;;;4.00;4.00;;;;;-143.39;100.00;63593.47;4890276;29;48087;-83
2021/07/29 06:59:31;;;;;;;;;3.25;2.75;;;;;-143.39;100.00;63593.47;4886997;29;45353;-81
2021/07/29 07:01:56;;;;;;;;;4.00;3.00;;;;;-143.39;100.00;63593.47;4887397;29;45373;-84
2021/07/29 07:04:22;;;;;;;;;6.50;2.50;;;;;-143.39;100.00;63593.47;4887176;29;45320;-81
2021/07/29 07:06:47;;;;;;;;;5.25;2.25;;;;;-143.39;100.00;63593.47;4887185;29;45434;-81
2021/07/29 07:09:12;;;;;;;;;3.25;3.25;;;;;-143.39;100.00;63593.47;4887659;29;45307;-81
2021/07/29 07:11:38;;;;;;;;;1.75;1.75;;;;;-143.39;100.00;63593.47;4904756;29;45260;-82
2021/07/29 07:14:05;;;;;;;;;6.00;4.25;;;;;-143.39;100.00;63593.47;4894191;29;45588;-82
2021/07/29 07:16:31;;;;;;;;;5.00;4.75;;;;;-143.39;100.00;63593.47;4886884;29;45868;-82
2021/07/29 07:18:57;;;;;;;;;3.00;3.00;;;;;-143.39;100.00;63593.47;4886499;29;45359;-82
2021/07/29 07:21:23;;;;;;;;;3.75;3.75;;;;;-143.39;100.00;63593.47;4886691;29;45510;-82
2021/07/29 07:23:49;;;;;;;;;4.00;4.00;;;;;-143.39;100.00;63593.47;4901186;29;45585;-82
2021/07/29 07:26:16;;;;;;;;;4.25;3.25;;;;;-143.39;100.00;63593.47;4869542;29;47139;-82
2021/07/29 07:28:41;;;;;;;;;4.50;3.00;;;;;-143.39;100.00;63593.47;4886760;29;45340;-82
2021/07/29 07:31:07;;;;;;;;;3.50;3.00;;;;;-143.39;100.00;63593.47;4901221;29;45234;-82
2021/07/29 07:33:32;;;;;;;;;3.75;3.50;;;;;-143.39;100.00;63593.47;4886928;29;45594;-83
2021/07/29 07:35:57;;;;;;;;;6.50;4.00;;;;;-143.39;100.00;63593.47;4887007;29;46257;-82
2021/07/29 07:38:23;;;;;;;;;4.00;4.00;;;;;-143.39;100.00;63593.47;4901453;29;45332;-83
2021/07/29 07:40:49;;;;;;;;;5.25;4.00;;;;;-143.39;100.00;63593.47;4886900;29;45259;-83
2021/07/29 07:43:15;;;;;;;;;5.00;4.00;;;;;-143.39;100.00;63593.47;4869833;29;45312;-83
2021/07/29 07:45:41;;;;;;;;;3.50;3.50;;;;;-143.39;100.00;63593.47;4886482;29;45923;-83
2021/07/29 07:48:09;;;;;;;;;5.75;4.00;;;;;-143.39;100.00;63593.47;4869819;29;46125;-83
2021/07/29 07:50:34;;;;;;;;;3.25;2.75;;;;;-143.39;100.00;63593.47;4887199;29;45360;-83
2021/07/29 07:53:03;;;;;;;;;3.00;3.00;;;;;-143.39;100.00;63593.47;4886732;29;45359;-83
2021/07/29 07:55:29;;;;;;;;;2.25;2.25;;;;;-143.39;100.00;63593.47;4871404;29;48513;-83
2021/07/29 07:57:54;;;;;;;;;4.75;3.50;;;;;-143.39;100.00;63593.47;4895666;29;45164;-84
2021/07/29 08:00:19;;;;;;;;;3.50;3.50;;;;;-143.39;100.00;63593.47;4870521;29;45535;-83
2021/07/29 08:02:45;;;;;;;;;3.00;3.00;;;;;-143.39;100.00;63593.47;4869279;29;46136;-83
2021/07/29 08:05:10;;;;;;;;;2.25;2.25;;;;;-143.39;100.00;63593.47;4869268;29;46900;-83
2021/07/29 08:07:35;;;;;;;;;6.50;2.00;;;;;-143.39;100.00;63593.47;4886054;29;45275;-83
2021/07/29 08:10:01;;;;;;;;;4.00;2.50;;;;;-143.39;100.00;63593.47;4893019;29;45281;-83
2021/07/29 08:12:26;;;;;;;;;4.50;2.00;;;;;-143.39;100.00;63593.47;4904858;29;45645;-84
2021/07/29 08:14:51;;;;;;;;;2.00;2.00;;;;;-143.39;100.00;63593.47;4886692;29;46465;-83
2021/07/29 08:17:17;;;;;;;;;1.75;1.75;;;;;-143.39;100.00;63593.47;4886560;29;45152;-83
2021/07/29 08:19:42;;;;;;;;;4.25;2.25;;;;;-143.39;100.00;63593.47;4886517;29;45453;-83
2021/07/29 08:22:07;;;;;;;;;5.00;2.25;;;;;-143.39;100.00;63593.47;4885979;29;45331;-83
2021/07/29 08:24:33;;;;;;;;;1.50;1.50;;;;;-143.39;100.00;63593.47;4886047;29;46401;-83
2021/07/29 08:26:59;;;;;;;;;2.00;2.00;;;;;-143.39;100.00;63593.47;4869003;29;45375;-84
2021/07/29 08:29:25;;;;;;;;;2.25;2.00;;;;;-143.39;100.00;63593.47;4885830;29;45360;-84
2021/07/29 08:31:50;;;;;;;;;2.25;2.00;;;;;-143.39;100.00;63593.47;4885080;29;45272;-83
2021/07/29 08:34:16;;;;;;;;;1.00;1.00;;;;;-143.39;100.00;63593.47;4885835;29;45581;-84
2021/07/29 08:36:42;;;;;;;;;3.50;2.00;;;;;-143.39;100.00;63593.47;4885890;29;45391;-84
2021/07/29 08:39:08;;;;;;;;;8.00;2.75;;;;;-143.39;100.00;63593.47;4885882;29;45168;-83
2021/07/29 08:41:35;;;;;;;;;7.50;5.00;;;;;-143.39;100.00;63593.47;4885973;29;45257;-83
2021/07/29 08:44:00;;;;;;;;;4.25;2.75;;;;;-143.39;100.00;63593.47;4886279;29;45239;-84
2021/07/29 08:46:26;;;;;;;;;6.75;3.00;;;;;-143.39;100.00;63593.47;4869100;29;45440;-84
2021/07/29 08:48:51;;;;;;;;;4.00;3.00;;;;;-143.39;100.00;63593.47;4901091;29;45456;-84
2021/07/29 08:51:20;;;;;;;;;4.00;2.25;;;;;-143.39;100.00;63593.47;4886539;29;45185;-83
2021/07/29 08:53:47;;;;;;;;;4.75;3.25;;;;;-143.39;100.00;63593.47;4886153;29;45426;-84
2021/07/29 08:56:14;;;;;;;;;2.50;2.50;;;;;-143.39;100.00;63593.47;4893766;29;45223;-83
2021/07/29 08:58:40;;;;;;;;;2.50;2.50;;;;;-143.39;100.00;63593.47;4869228;29;45258;-84
2021/07/29 09:01:09;;;;;;;;;3.00;3.00;;;;;-143.39;100.00;63593.47;4885569;29;45306;-85
2021/07/29 09:03:36;;;;;;;;;3.00;1.25;;;;;-143.39;100.00;63593.47;4885532;29;45355;-82
2021/07/29 09:06:09;;;;;;;;;3.25;2.00;;;;;-143.39;100.00;63593.47;4886408;29;45444;-83
2021/07/29 09:08:54;;;;;;;;;0.50;0.50;;;;;-143.39;100.00;63593.47;4885890;29;45358;-84
2021/07/29 09:11:26;;;;;;;;;3.75;1.25;;;;;-143.39;100.00;63593.47;4885316;29;45918;-84
2021/07/29 09:14:13;;;;;;;;;1.75;0.75;;;;;-143.39;100.00;63593.47;4894467;29;46337;-83
2021/07/29 09:17:03;;;;;;;;;1.50;1.00;;;;;-143.39;100.00;63593.47;4875681;29;45443;-84
2021/07/29 09:19:36;;;;;;;;;2.00;2.00;;;;;-143.39;100.00;63593.47;4904528;29;45284;-84
2021/07/29 09:22:28;;;;;;;;;2.00;0.00;;;;;-143.39;100.00;63593.47;4904411;29;45472;-84
2021/07/29 09:25:07;;;;;;;;;0.25;0.25;;;;;-143.39;100.00;63593.47;4904514;29;46355;-84
2021/07/29 09:27:42;;;;;;;;;2.00;1.75;;;;;-143.39;100.00;63593.47;4887967;29;45280;-84
2021/07/29 09:30:17;;;;;;;;;1.00;1.00;;;;;-143.39;100.00;63593.47;4904156;29;45306;-85
2021/07/29 09:33:13;;;;;;;;;2.75;1.25;;;;;-143.39;100.00;63593.47;4903812;29;45233;-83
2021/07/29 09:35:47;;;;;;;;;1.25;0.25;;;;;-143.39;100.00;63593.47;4902549;29;45308;-84
2021/07/29 09:38:31;;;;;;;;;1.25;1.25;;;;;-143.39;100.00;63593.47;4904073;29;45692;-84
2021/07/29 09:41:06;;;;;;;;;3.00;1.25;;;;;-143.39;100.00;63593.47;4904184;29;45374;-85
2021/07/29 09:43:33;;;;;;;;;2.00;2.00;;;;;-143.39;100.00;63593.47;4903546;29;45443;-84
2021/07/29 09:46:16;;;;;;;;;0.00;0.00;;;;;-143.39;100.00;63593.47;4895882;29;46464;-84
2021/07/29 09:48:43;;;;;;;;;2.00;2.00;;;;;-143.39;100.00;63593.47;4885326;29;45409;-84
2021/07/29 09:51:09;;;;;;;;;0.50;0.50;;;;;-143.39;100.00;63593.47;4885273;29;45249;-84
2021/07/29 09:53:36;;;;;;;;;3.00;2.00;;;;;-143.39;100.00;63593.47;4868175;29;45193;-84
2021/07/29 09:56:07;;;;;;;;;1.00;1.00;;;;;-143.39;100.00;63593.47;4890584;29;46593;-84
2021/07/29 09:58:34;;;;;;;;;1.75;0.75;;;;;-143.39;100.00;63593.47;4869015;29;45390;-84
2021/07/29 10:00:59;;;;;;;;;1.00;1.00;;;;;-143.39;100.00;63593.47;4867945;29;45267;-84
2021/07/29 10:03:26;;;;;;;;;0.25;0.25;;;;;-143.39;100.00;63593.47;4885113;29;45444;-84
2021/07/29 10:06:04;;;;;;;;;5.50;1.75;;;;;-143.39;100.00;63593.47;4885410;29;46308;-84
2021/07/29 10:08:33;;;;;;;;;3.00;1.25;;;;;-143.39;100.00;63593.47;4891690;29;45478;-85
2021/07/29 10:11:00;;;;;;;;;1.50;1.00;;;;;-143.39;100.00;63593.47;4903682;29;45287;-85
2021/07/29 10:13:38;;;;;;;;;1.00;1.00;;;;;-143.39;100.00;63593.47;4897061;29;45238;-84
2021/07/29 10:16:15;;;;;;;;;2.75;1.75;;;;;-143.39;100.00;63593.47;4884757;29;45319;-84
2021/07/29 10:18:55;;;;;;;;;1.00;1.00;;;;;-143.39;100.00;63593.47;4886493;29;45413;-84
2021/07/29 10:21:24;;;;;;;;;1.00;1.00;;;;;-143.39;100.00;63593.47;4884945;29;45237;-84
2021/07/29 10:23:54;;;;;;;;;1.50;0.00;;;;;-143.39;100.00;63593.47;4900143;29;45522;-84
2021/07/29 10:26:21;;;;;;;;;1.00;1.00;;;;;-143.39;100.00;63593.47;4886261;29;47207;-84
2021/07/29 10:28:46;;;;;;;;;1.00;1.00;;;;;-143.39;100.00;63593.47;4903153;29;45249;-84
2021/07/29 10:31:14;;;;;;;;;0.50;0.50;;;;;-143.39;100.00;63593.47;4903729;29;45289;-84
2021/07/29 10:33:41;;;;;;;;;2.50;1.00;;;;;-143.39;100.00;63593.47;4903774;29;45454;-85
2021/07/29 10:36:08;;;;;;;;;2.50;2.00;;;;;-143.39;100.00;63593.47;4903773;29;45554;-84
2021/07/29 10:38:39;;;;;;;;;1.75;1.75;;;;;-143.39;100.00;63593.47;4902957;29;45188;-84
2021/07/29 10:41:30;;;;;;;;;1.50;1.50;;;;;-143.39;100.00;63593.47;4886491;29;45370;-84
2021/07/29 10:43:56;;;;;;;;;2.00;1.00;;;;;-143.39;100.00;63593.47;4902967;29;45217;-85
2021/07/29 10:46:41;;;;;;;;;2.50;1.00;;;;;-143.39;100.00;63593.47;4903265;29;46197;-85
2021/07/29 10:49:13;;;;;;;;;3.25;0.75;;;;;-143.39;100.00;63593.47;4902759;29;45426;-85
2021/07/29 10:51:58;;;;;;;;;2.25;1.75;;;;;-143.39;100.00;63593.47;4903213;29;45292;-85
2021/07/29 10:54:25;;;;;;;;;1.25;1.00;;;;;-143.39;100.00;63593.47;4903679;28;45230;-85
2021/07/29 10:56:51;;;;;;;;;2.00;2.00;;;;;-143.39;100.00;63593.47;4902749;29;46535;-85
2021/07/29 10:59:18;;;;;;;;;3.00;0.25;;;;;-143.39;100.00;63593.47;4887294;29;45234;-85
2021/07/29 11:01:47;;;;;;;;;2.00;2.00;;;;;-143.39;100.00;63593.47;4870268;29;45366;-85
2021/07/29 11:04:13;;;;;;;;;1.00;1.00;;;;;-143.39;100.00;63593.47;4887305;29;45321;-85
2021/07/29 11:06:43;;;;;;;;;0.00;0.00;;;;;-143.39;100.00;63593.47;4887094;29;46290;-84
2021/07/29 11:09:21;;;;;;;;;0.00;0.00;;;;;-143.39;100.00;63593.47;4887070;29;45320;-84
2021/07/29 11:11:50;;;;;;;;;1.25;1.25;;;;;-143.39;100.00;63593.47;4887463;29;45439;-84